Time;durP1;ratioP1;P1;durP2;ratioP2;P2;SDS_P1;SDS_P2;PMS_P1;PMS_P2;Temp;Humidity;BMP_temperature;BMP_pressure;BME280_temperature;BME280_humidity;BME280_pressure;Samples;Min_cycle;Max_cycle;Signal;HPM_P1;HPM_P2
2022/10/15 00:00:27;;;;;;;;;;;;;;;12.45;61.35;101270.38;5041011;28;19917;-83
2022/10/15 00:02:53;;;;;;;;;;;;;;;12.40;61.69;101270.03;5030548;28;19977;-82
2022/10/15 00:05:18;;;;;;;;;;;;;;;12.33;61.87;101269.81;5059215;28;20012;-82
2022/10/15 00:07:45;;;;;;;;;;;;;;;12.31;61.56;101266.41;5066448;28;20396;-82
2022/10/15 00:10:10;;;;;;;;;;;;;;;12.24;61.70;101270.75;5039307;28;19982;-85
2022/10/15 00:12:35;;;;;;;;;;;;;;;12.28;61.72;101264.03;5029931;28;19970;-84
2022/10/15 00:15:01;;;;;;;;;;;;;;;12.26;62.01;101271.44;5040521;28;20365;-83
2022/10/15 00:17:27;;;;;;;;;;;;;;;12.28;61.57;101266.75;5034390;28;19931;-80
2022/10/15 00:19:52;;;;;;;;;;;;;;;12.28;61.79;101264.03;5038962;28;19939;-83
2022/10/15 00:22:18;;;;;;;;;;;;;;;12.26;61.75;101257.97;5042464;28;20007;-83
2022/10/15 00:24:44;;;;;;;;;;;;;;;12.22;61.74;101252.06;5041158;28;20277;-82
2022/10/15 00:27:09;;;;;;;;;;;;;;;12.18;61.72;101257.91;5037807;28;19972;-83
2022/10/15 00:29:34;;;;;;;;;;;;;;;12.10;61.67;101257.84;5033389;28;20412;-83
2022/10/15 00:31:59;;;;;;;;;;;;;;;12.08;61.57;101251.75;5037400;28;19925;-82
2022/10/15 00:34:25;;;;;;;;;;;;;;;12.00;61.70;101255.22;5019279;28;19967;-83
2022/10/15 00:36:52;;;;;;;;;;;;;;;11.97;61.49;101247.47;5031473;28;19923;-81
2022/10/15 00:39:17;;;;;;;;;;;;;;;11.89;61.77;101245.53;5044053;28;19925;-82
2022/10/15 00:41:42;;;;;;;;;;;;;;;11.88;61.51;101245.72;5038653;28;19927;-83
2022/10/15 00:44:20;;;;;;;;;;;;;;;11.72;61.94;101243.66;5036183;28;20273;-83
2022/10/15 00:46:45;;;;;;;;;;;;;;;11.58;62.56;101245.88;5039284;28;19925;-83
2022/10/15 00:49:11;;;;;;;;;;;;;;;11.56;62.48;101239.81;5034676;28;20287;-82
2022/10/15 00:51:40;;;;;;;;;;;;;;;11.53;62.58;101237.44;5043492;28;19944;-82
2022/10/15 00:54:05;;;;;;;;;;;;;;;11.45;62.98;101231.09;5038407;28;20011;-82
2022/10/15 00:56:30;;;;;;;;;;;;;;;11.38;63.18;101230.91;5052803;28;20011;-83
2022/10/15 00:58:56;;;;;;;;;;;;;;;11.37;63.39;101227.34;5033646;28;19921;-84
2022/10/15 01:01:22;;;;;;;;;;;;;;;11.33;63.40;101225.09;5044454;28;19929;-83
2022/10/15 01:03:47;;;;;;;;;;;;;;;11.29;63.90;101226.44;5038721;28;19925;-82
2022/10/15 01:06:12;;;;;;;;;;;;;;;11.32;63.97;101220.72;5040517;28;20297;-81
2022/10/15 01:08:38;;;;;;;;;;;;;;;11.23;64.35;101224.31;5037925;28;19932;-81
2022/10/15 01:11:16;;;;;;;;;;;;;;;11.28;64.32;101219.31;5045312;28;19921;-82
2022/10/15 01:13:57;;;;;;;;;;;;;;;11.28;64.30;101230.09;5043049;28;19929;-81
2022/10/15 01:16:43;;;;;;;;;;;;;;;11.30;63.94;101228.09;5040668;28;19920;-82
2022/10/15 01:19:26;;;;;;;;;;;;;;;11.28;64.00;101220.16;5062333;28;20072;-82
2022/10/15 01:22:05;;;;;;;;;;;;;;;11.32;64.14;101231.50;5056391;28;19920;-83
2022/10/15 01:24:30;;;;;;;;;;;;;;;11.32;64.21;101224.25;5059210;28;19930;-83
2022/10/15 01:27:04;;;;;;;;;;;;;;;11.30;64.17;101231.63;5060649;28;19920;-82
2022/10/15 01:29:42;;;;;;;;;;;;;;;11.28;63.76;101213.94;5061363;28;20384;-82
2022/10/15 01:32:19;;;;;;;;;;;;;;;11.23;64.11;101225.16;5052715;28;19939;-83
2022/10/15 01:35:03;;;;;;;;;;;;;;;11.19;64.18;101224.63;5058037;28;19913;-83
2022/10/15 01:37:28;;;;;;;;;;;;;;;11.13;64.41;101219.84;5052593;28;20041;-81
2022/10/15 01:39:55;;;;;;;;;;;;;;;11.04;64.66;101217.22;5058879;28;19920;-82
2022/10/15 01:42:38;;;;;;;;;;;;;;;10.97;64.82;101222.34;5047171;28;19964;-83
2022/10/15 01:45:12;;;;;;;;;;;;;;;11.02;64.86;101216.53;5045282;28;19925;-83
2022/10/15 01:47:37;;;;;;;;;;;;;;;11.02;65.01;101211.97;5036047;28;20059;-82
2022/10/15 01:50:03;;;;;;;;;;;;;;;11.01;64.99;101202.22;5062282;28;20483;-82
2022/10/15 01:52:29;;;;;;;;;;;;;;;10.97;65.06;101212.44;5036071;28;19920;-82
2022/10/15 01:54:54;;;;;;;;;;;;;;;11.03;65.05;101202.94;5053959;28;19940;-83
2022/10/15 01:57:20;;;;;;;;;;;;;;;10.98;65.54;101207.91;5042615;28;19921;-83
2022/10/15 01:59:46;;;;;;;;;;;;;;;10.98;65.53;101207.91;5042600;28;19974;-82
2022/10/15 02:02:11;;;;;;;;;;;;;;;10.93;65.98;101204.81;5054424;28;20311;-82
2022/10/15 02:04:36;;;;;;;;;;;;;;;10.97;66.19;101212.44;5061749;28;19997;-82
2022/10/15 02:07:22;;;;;;;;;;;;;;;11.04;66.09;101212.69;5064270;28;19920;-82
2022/10/15 02:09:53;;;;;;;;;;;;;;;10.98;66.52;101207.91;5062715;28;19950;-83
2022/10/15 02:12:28;;;;;;;;;;;;;;;11.07;66.43;101204.28;5063886;28;19921;-82
2022/10/15 02:14:53;;;;;;;;;;;;;;;11.00;66.91;101203.22;5066032;28;19986;-83
2022/10/15 02:17:22;;;;;;;;;;;;;;;10.92;67.29;101203.97;5064460;28;19924;-82
2022/10/15 02:19:58;;;;;;;;;;;;;;;10.95;67.44;101210.88;5050954;28;19947;-82
2022/10/15 02:22:26;;;;;;;;;;;;;;;10.95;67.84;101205.50;5062510;28;19924;-82
2022/10/15 02:25:03;;;;;;;;;;;;;;;10.95;68.15;101203.66;5042808;28;20360;-83
2022/10/15 02:27:28;;;;;;;;;;;;;;;10.99;68.37;101204.22;5044411;28;19916;-81
2022/10/15 02:29:54;;;;;;;;;;;;;;;11.01;68.30;101202.22;5073157;28;19984;-82
2022/10/15 02:32:20;;;;;;;;;;;;;;;11.01;68.01;101202.22;5076646;28;20015;-83
2022/10/15 02:34:46;;;;;;;;;;;;;;;11.06;67.89;101196.41;5065143;28;20397;-85
2022/10/15 02:37:12;;;;;;;;;;;;;;;10.88;67.75;101202.56;5056200;28;19920;-82
2022/10/15 02:39:37;;;;;;;;;;;;;;;10.92;67.45;101198.59;5052654;28;19924;-83
2022/10/15 02:42:03;;;;;;;;;;;;;;;10.88;67.42;101207.94;5044674;28;20056;-83
2022/10/15 02:44:28;;;;;;;;;;;;;;;10.89;67.10;101206.97;5047180;28;20285;-83
2022/10/15 02:46:53;;;;;;;;;;;;;;;10.89;66.93;101203.44;5063814;28;19928;-84
2022/10/15 02:49:19;;;;;;;;;;;;;;;10.84;67.10;101209.25;5044207;28;20390;-83
2022/10/15 02:51:44;;;;;;;;;;;;;;;10.83;67.13;101217.47;5042733;28;19924;-82
2022/10/15 02:54:09;;;;;;;;;;;;;;;10.71;67.19;101212.28;5050367;28;20007;-82
2022/10/15 02:56:37;;;;;;;;;;;;;;;10.74;66.86;101228.09;5060410;28;19946;-84
2022/10/15 02:59:04;;;;;;;;;;;;;;;10.74;66.70;101209.28;5057033;28;20371;-82
2022/10/15 03:01:30;;;;;;;;;;;;;;;10.75;66.69;101213.69;5046046;28;19922;-82
2022/10/15 03:03:56;;;;;;;;;;;;;;;10.77;66.48;101206.31;5039513;28;19925;-81
2022/10/15 03:06:21;;;;;;;;;;;;;;;10.73;66.57;101210.28;5049414;28;19974;-83
2022/10/15 03:08:47;;;;;;;;;;;;;;;10.68;66.64;101201.00;5044345;28;20030;-81
2022/10/15 03:11:13;;;;;;;;;;;;;;;10.71;66.72;101206.91;5051085;28;20289;-82
2022/10/15 03:13:38;;;;;;;;;;;;;;;10.64;66.30;101200.44;5028812;28;19920;-80
2022/10/15 03:16:04;;;;;;;;;;;;;;;10.76;66.44;101209.16;5045806;28;20348;-81
2022/10/15 03:18:30;;;;;;;;;;;;;;;10.82;66.10;101213.09;5044147;28;20003;-81
2022/10/15 03:20:56;;;;;;;;;;;;;;;10.71;66.47;101212.28;5041453;28;20324;-81
2022/10/15 03:23:22;;;;;;;;;;;;;;;10.84;66.37;101213.78;5048369;28;19926;-84
2022/10/15 03:25:47;;;;;;;;;;;;;;;10.78;66.47;101213.38;5047021;28;19924;-83
2022/10/15 03:28:12;;;;;;;;;;;;;;;10.83;66.56;101212.94;5031741;28;20011;-81
2022/10/15 03:30:38;;;;;;;;;;;;;;;10.83;66.86;101214.78;5037999;28;19917;-82
2022/10/15 03:33:03;;;;;;;;;;;;;;;10.86;67.05;101215.31;5061987;28;19927;-83
2022/10/15 03:35:28;;;;;;;;;;;;;;;10.85;67.18;101207.41;5030578;28;20089;-82
2022/10/15 03:37:54;;;;;;;;;;;;;;;10.94;67.07;101211.91;5036946;28;19924;-82
2022/10/15 03:40:19;;;;;;;;;;;;;;;10.95;67.42;101214.41;5043791;28;19924;-82
2022/10/15 03:42:49;;;;;;;;;;;;;;;10.97;67.41;101206.22;5037512;28;19926;-83
2022/10/15 03:45:14;;;;;;;;;;;;;;;11.04;67.54;101207.28;5065593;28;19944;-83
2022/10/15 03:47:39;;;;;;;;;;;;;;;11.15;67.71;101206.25;5042382;28;20360;-86
2022/10/15 03:50:05;;;;;;;;;;;;;;;11.18;68.19;101214.00;5040768;28;20666;-82
2022/10/15 03:52:31;;;;;;;;;;;;;;;11.17;68.29;101206.94;5053408;28;19928;-82
2022/10/15 03:54:58;;;;;;;;;;;;;;;11.22;68.39;101210.03;5057651;28;19970;-82
2022/10/15 03:57:23;;;;;;;;;;;;;;;11.26;68.91;101206.03;5041837;28;19964;-82
2022/10/15 03:59:48;;;;;;;;;;;;;;;11.39;69.21;101211.03;5062731;28;19966;-81
2022/10/15 04:02:14;;;;;;;;;;;;;;;11.44;71.38;101213.28;5046176;28;20004;-80
2022/10/15 04:04:39;;;;;;;;;;;;;;;11.53;72.16;101213.19;5044400;28;19924;-81
2022/10/15 04:07:04;;;;;;;;;;;;;;;11.58;73.10;101213.56;5043880;28;20059;-82
2022/10/15 04:09:30;;;;;;;;;;;;;;;11.58;71.84;101216.28;5046061;28;19920;-82
2022/10/15 04:11:55;;;;;;;;;;;;;;;11.44;71.72;101207.88;5065553;28;20001;-82
2022/10/15 04:14:21;;;;;;;;;;;;;;;11.45;71.94;101199.66;5040459;28;20023;-84
2022/10/15 04:16:46;;;;;;;;;;;;;;;11.43;72.02;101204.34;5051801;28;20015;-81
2022/10/15 04:19:11;;;;;;;;;;;;;;;11.35;72.43;101198.88;5042933;28;19927;-81
2022/10/15 04:21:37;;;;;;;;;;;;;;;11.41;72.65;101198.28;5039079;28;19932;-83
2022/10/15 04:24:02;;;;;;;;;;;;;;;11.46;73.30;101201.34;5062919;28;19921;-83
2022/10/15 04:26:27;;;;;;;;;;;;;;;11.46;72.77;101198.66;5037952;28;19920;-81
2022/10/15 04:28:54;;;;;;;;;;;;;;;11.63;72.49;101202.34;5039080;28;20015;-82
2022/10/15 04:31:20;;;;;;;;;;;;;;;11.64;72.34;101197.81;5043277;28;19921;-81
2022/10/15 04:33:49;;;;;;;;;;;;;;;11.69;71.92;101192.81;5034061;28;20296;-80
2022/10/15 04:36:14;;;;;;;;;;;;;;;11.75;71.60;101198.44;5047895;28;19921;-81
2022/10/15 04:38:40;;;;;;;;;;;;;;;11.81;71.08;101205.03;5043390;28;19916;-82
2022/10/15 04:41:07;;;;;;;;;;;;;;;11.86;70.97;101199.19;5070730;28;19970;-80
2022/10/15 04:43:32;;;;;;;;;;;;;;;11.94;70.99;101202.81;5050873;28;19970;-81
2022/10/15 04:45:59;;;;;;;;;;;;;;;12.07;70.03;101210.47;5042333;28;20331;-81
2022/10/15 04:48:26;;;;;;;;;;;;;;;12.15;69.43;101209.69;5064228;28;19944;-82
2022/10/15 04:50:52;;;;;;;;;;;;;;;12.15;69.51;101199.78;5041476;28;19917;-84
2022/10/15 04:53:17;;;;;;;;;;;;;;;12.30;68.69;101191.94;5059482;28;19928;-83
2022/10/15 04:55:43;;;;;;;;;;;;;;;12.44;68.79;101202.13;5024186;28;20359;-82
2022/10/15 04:58:08;;;;;;;;;;;;;;;12.54;67.83;101206.56;5061196;28;20458;-83
2022/10/15 05:00:35;;;;;;;;;;;;;;;12.56;67.84;101216.19;5061570;28;19932;-81
2022/10/15 05:03:00;;;;;;;;;;;;;;;12.64;67.57;101218.06;5044707;28;19983;-83
2022/10/15 05:05:25;;;;;;;;;;;;;;;12.72;66.92;101215.44;5062895;28;19920;-82
2022/10/15 05:07:52;;;;;;;;;;;;;;;12.78;66.52;101209.41;5029612;28;19927;-81
2022/10/15 05:10:17;;;;;;;;;;;;;;;12.84;66.46;101216.00;5063677;28;20023;-80
2022/10/15 05:12:43;;;;;;;;;;;;;;;12.90;66.17;101218.03;5043052;28;20011;-81
2022/10/15 05:15:08;;;;;;;;;;;;;;;12.99;66.05;101216.19;5042957;28;19952;-81
2022/10/15 05:17:33;;;;;;;;;;;;;;;13.03;65.99;101223.81;5066834;28;19977;-80
2022/10/15 05:19:59;;;;;;;;;;;;;;;13.10;65.64;101218.59;5038026;28;19940;-81
2022/10/15 05:22:24;;;;;;;;;;;;;;;13.21;65.37;101214.78;5027283;28;20019;-81
2022/10/15 05:24:49;;;;;;;;;;;;;;;13.29;65.05;101218.34;5046597;28;19971;-80
2022/10/15 05:27:15;;;;;;;;;;;;;;;13.46;64.49;101218.38;5028601;28;20017;-81
2022/10/15 05:29:40;;;;;;;;;;;;;;;13.66;64.41;101222.47;5043698;28;19924;-79
2022/10/15 05:32:07;;;;;;;;;;;;;;;13.82;63.57;101223.50;5034225;28;19921;-82
2022/10/15 05:34:32;;;;;;;;;;;;;;;13.87;63.19;101230.09;5063891;28;20252;-80
2022/10/15 05:36:58;;;;;;;;;;;;;;;13.85;63.32;101234.81;5064030;28;20023;-81
2022/10/15 05:39:24;;;;;;;;;;;;;;;13.83;63.77;101225.19;5044235;28;19920;-82
2022/10/15 05:41:49;;;;;;;;;;;;;;;13.88;63.21;101233.63;5067730;28;19920;-79
2022/10/15 05:44:14;;;;;;;;;;;;;;;14.05;62.46;101240.72;5031307;28;19921;-80
2022/10/15 05:46:43;;;;;;;;;;;;;;;14.22;62.06;101241.56;5056931;28;19959;-82
2022/10/15 05:49:08;;;;;;;;;;;;;;;14.23;61.75;101245.94;5064359;28;20005;-81
2022/10/15 05:51:34;;;;;;;;;;;;;;;14.25;61.54;101253.91;5038506;28;19948;-80
2022/10/15 05:54:00;;;;;;;;;;;;;;;14.23;62.08;101247.81;5042576;28;19970;-81
2022/10/15 05:56:26;;;;;;;;;;;;;;;14.22;61.94;101243.44;5039352;28;19964;-81
2022/10/15 05:58:52;;;;;;;;;;;;;;;14.27;61.82;101246.47;5060227;28;20330;-82
2022/10/15 06:01:17;;;;;;;;;;;;;;;14.23;62.06;101245.09;5060029;28;19917;-82
2022/10/15 06:03:43;;;;;;;;;;;;;;;14.20;62.01;101248.16;5038134;28;20385;-80
2022/10/15 06:06:17;;;;;;;;;;;;;;;14.20;62.12;101248.16;5040591;28;20309;-82
2022/10/15 06:08:43;;;;;;;;;;;;;;;14.18;61.83;101225.84;5057709;28;19956;-81
2022/10/15 06:11:08;;;;;;;;;;;;;;;14.25;61.56;101245.78;5056517;28;19952;-81
2022/10/15 06:13:35;;;;;;;;;;;;;;;14.23;61.21;101242.41;5056661;28;19920;-84
2022/10/15 06:16:02;;;;;;;;;;;;;;;14.32;61.09;101241.38;5067749;28;19924;-81
2022/10/15 06:18:27;;;;;;;;;;;;;;;14.32;60.99;101236.81;5045262;28;21612;-81
2022/10/15 06:20:54;;;;;;;;;;;;;;;14.39;60.72;101247.78;5046382;28;19921;-82
2022/10/15 06:23:20;;;;;;;;;;;;;;;14.29;60.99;101234.44;5045147;28;19974;-81
2022/10/15 06:25:45;;;;;;;;;;;;;;;14.37;60.81;101239.00;5042899;28;19921;-85
2022/10/15 06:28:11;;;;;;;;;;;;;;;14.48;60.59;101245.91;5062094;28;20019;-83
2022/10/15 06:30:36;;;;;;;;;;;;;;;14.59;60.43;101242.06;5043139;28;20303;-82
2022/10/15 06:33:01;;;;;;;;;;;;;;;14.64;59.90;101236.97;5043789;28;19943;-80
2022/10/15 06:35:29;;;;;;;;;;;;;;;14.70;59.55;101250.66;5044267;28;19920;-83
2022/10/15 06:37:57;;;;;;;;;;;;;;;14.77;59.44;101258.88;5043740;28;19947;-84
2022/10/15 06:40:22;;;;;;;;;;;;;;;14.77;58.99;101248.94;5048894;28;19982;-83
2022/10/15 06:42:48;;;;;;;;;;;;;;;14.77;59.09;101256.19;5045931;28;20530;-83
2022/10/15 06:45:15;;;;;;;;;;;;;;;14.89;58.82;101279.16;5066592;28;19933;-81
2022/10/15 06:47:41;;;;;;;;;;;;;;;14.87;58.47;101272.25;5046525;28;20022;-85
2022/10/15 06:50:06;;;;;;;;;;;;;;;14.97;58.29;101273.72;5073618;28;19933;-84
2022/10/15 06:52:32;;;;;;;;;;;;;;;15.10;57.78;101281.28;5076522;28;19939;-82
2022/10/15 06:55:18;;;;;;;;;;;;;;;15.23;57.52;101274.47;5056381;28;19926;-85
2022/10/15 06:57:43;;;;;;;;;;;;;;;15.28;56.79;101270.19;5062255;28;20023;-85
2022/10/15 07:00:09;;;;;;;;;;;;;;;15.49;56.05;101271.44;5046288;28;20032;-84
2022/10/15 07:02:35;;;;;;;;;;;;;;;15.41;56.16;101262.34;5062532;28;19963;-90
2022/10/15 07:05:00;;;;;;;;;;;;;;;15.64;55.60;101272.38;5044928;28;19928;-90
2022/10/15 07:07:30;;;;;;;;;;;;;;;15.85;54.63;101258.19;5061395;28;19932;-89
2022/10/15 07:09:58;;;;;;;;;;;;;;;16.04;54.22;101262.28;5056600;28;19928;-91
2022/10/15 07:12:26;;;;;;;;;;;;;;;16.14;53.79;101253.91;5046346;28;19986;-88
2022/10/15 07:14:53;;;;;;;;;;;;;;;16.25;53.43;101267.84;5065553;28;20377;-89
2022/10/15 07:17:18;;;;;;;;;;;;;;;16.27;53.56;101261.41;5071186;28;19999;-87
2022/10/15 07:19:43;;;;;;;;;;;;;;;16.56;52.41;101277.75;5076103;28;19931;-88
2022/10/15 07:22:09;;;;;;;;;;;;;;;16.81;52.17;101288.34;5062285;28;20051;-86
2022/10/15 07:24:34;;;;;;;;;;;;;;;16.97;50.53;101281.91;5060105;28;20320;-88
2022/10/15 07:27:00;;;;;;;;;;;;;;;17.09;50.11;101278.53;5058338;28;19924;-87
2022/10/15 07:29:26;;;;;;;;;;;;;;;16.98;50.26;101281.72;5065206;28;20350;-85
2022/10/15 07:31:52;;;;;;;;;;;;;;;17.41;49.57;101287.28;5064057;28;20007;-87
2022/10/15 07:34:20;;;;;;;;;;;;;;;17.73;48.53;101293.31;5063613;28;21156;-88
2022/10/15 07:36:45;;;;;;;;;;;;;;;18.21;47.09;101279.97;5044296;28;19935;-88
2022/10/15 07:39:11;;;;;;;;;;;;;;;18.58;46.14;101277.97;5058250;28;19920;-89
2022/10/15 07:41:38;;;;;;;;;;;;;;;18.88;44.72;101286.78;5034724;28;19929;-88
2022/10/15 07:44:05;;;;;;;;;;;;;;;19.11;43.85;101286.47;5025383;28;19948;-87
2022/10/15 07:46:30;;;;;;;;;;;;;;;19.59;42.47;101283.72;5065910;28;19928;-87
2022/10/15 07:48:56;;;;;;;;;;;;;;;20.14;41.56;101280.09;5065076;28;19920;-85
2022/10/15 07:51:21;;;;;;;;;;;;;;;19.95;41.66;101277.13;5063971;28;19956;-87
2022/10/15 07:53:46;;;;;;;;;;;;;;;21.46;39.25;101275.44;5014136;28;19964;-84
2022/10/15 07:56:13;;;;;;;;;;;;;;;22.06;37.33;101275.91;5037694;28;19921;-87
2022/10/15 07:58:38;;;;;;;;;;;;;;;21.88;37.28;101270.34;5051008;28;19925;-85
2022/10/15 08:01:04;;;;;;;;;;;;;;;22.22;36.78;101281.91;5015101;28;19974;-84
2022/10/15 08:03:29;;;;;;;;;;;;;;;21.95;36.82;101281.25;5036846;28;19979;-84
2022/10/15 08:05:55;;;;;;;;;;;;;;;21.48;37.72;101281.53;5052417;28;20384;-83
2022/10/15 08:08:21;;;;;;;;;;;;;;;21.19;38.12;101285.59;5061609;28;20699;-83
2022/10/15 08:10:46;;;;;;;;;;;;;;;21.17;38.67;101274.06;5049223;28;20389;-82
2022/10/15 08:13:12;;;;;;;;;;;;;;;20.84;38.32;101286.78;5052005;28;19920;-85
2022/10/15 08:15:39;;;;;;;;;;;;;;;21.71;37.32;101281.81;5059459;28;19928;-81
2022/10/15 08:18:06;;;;;;;;;;;;;;;21.36;35.86;101288.72;5041369;28;19928;-82
2022/10/15 08:20:33;;;;;;;;;;;;;;;21.07;36.45;101278.09;5064970;28;19921;-82
2022/10/15 08:23:00;;;;;;;;;;;;;;;21.20;36.05;101284.56;5061276;28;20019;-81
2022/10/15 08:25:26;;;;;;;;;;;;;;;21.14;36.38;101297.22;5048932;28;19924;-82
2022/10/15 08:27:52;;;;;;;;;;;;;;;21.14;35.12;101296.34;5045901;28;19952;-83
2022/10/15 08:30:17;;;;;;;;;;;;;;;21.66;33.87;101280.81;5059429;28;20430;-82
2022/10/15 08:32:46;;;;;;;;;;;;;;;21.73;33.26;101288.97;5048150;28;19935;-81
2022/10/15 08:35:11;;;;;;;;;;;;;;;21.52;33.30;101281.91;5062111;28;19935;-83
2022/10/15 08:37:36;;;;;;;;;;;;;;;21.65;32.92;101292.81;5063781;28;19917;-84
2022/10/15 08:40:02;;;;;;;;;;;;;;;21.41;33.23;101291.66;5074540;28;19916;-81
2022/10/15 08:42:32;;;;;;;;;;;;;;;21.54;32.97;101305.28;5053837;28;19928;-83
2022/10/15 08:44:59;;;;;;;;;;;;;;;21.73;32.13;101299.91;5049879;28;19916;-83
2022/10/15 08:47:38;;;;;;;;;;;;;;;22.42;31.66;101301.75;5065126;28;19920;-81
2022/10/15 08:50:11;;;;;;;;;;;;;;;23.02;30.92;101308.59;5064446;28;19964;-81
2022/10/15 08:52:41;;;;;;;;;;;;;;;22.67;31.43;101306.41;5060186;28;19920;-82
2022/10/15 08:55:10;;;;;;;;;;;;;;;23.43;30.39;101309.78;5040120;28;19956;-82
2022/10/15 08:57:41;;;;;;;;;;;;;;;24.78;28.83;101294.66;5043157;28;19971;-80
2022/10/15 09:00:09;;;;;;;;;;;;;;;25.12;28.26;101311.34;5049552;28;19955;-81
2022/10/15 09:02:39;;;;;;;;;;;;;;;25.52;27.55;101305.03;5069902;28;20010;-82
2022/10/15 09:05:08;;;;;;;;;;;;;;;25.60;27.69;101293.63;5034239;28;20274;-82
2022/10/15 09:07:44;;;;;;;;;;;;;;;26.01;27.69;101311.81;5063848;28;20012;-82
2022/10/15 09:10:15;;;;;;;;;;;;;;;25.85;27.74;101315.31;5034299;28;20019;-81
2022/10/15 09:12:48;;;;;;;;;;;;;;;26.39;27.28;101304.72;5064686;28;20618;-81
2022/10/15 09:15:15;;;;;;;;;;;;;;;26.44;27.89;101318.59;5045908;28;19925;-82
2022/10/15 09:17:40;;;;;;;;;;;;;;;25.77;30.39;101324.81;5042610;28;19921;-87
2022/10/15 09:20:06;;;;;;;;;;;;;;;24.50;33.72;101331.94;5055677;28;19990;-83
2022/10/15 09:22:33;;;;;;;;;;;;;;;24.04;35.00;101344.44;5071177;28;19967;-81
2022/10/15 09:24:59;;;;;;;;;;;;;;;23.32;36.40;101358.88;5041585;28;19921;-83
2022/10/15 09:27:34;;;;;;;;;;;;;;;23.68;35.71;101348.94;5041310;28;19921;-84
2022/10/15 09:30:18;;;;;;;;;;;;;;;23.59;35.92;101342.09;5050191;28;19924;-81
2022/10/15 09:32:58;;;;;;;;;;;;;;;22.67;37.69;101336.53;5058745;28;19921;-82
2022/10/15 09:35:23;;;;;;;;;;;;;;;22.14;38.87;101341.34;5064459;28;20006;-80
2022/10/15 09:37:54;;;;;;;;;;;;;;;21.87;39.64;101348.06;5061467;28;19982;-83
2022/10/15 09:40:28;;;;;;;;;;;;;;;21.41;40.54;101339.00;5051969;28;19923;-82
2022/10/15 09:42:54;;;;;;;;;;;;;;;20.86;41.94;101360.34;5040377;28;19928;-82
2022/10/15 09:45:20;;;;;;;;;;;;;;;19.98;43.89;101347.66;5052317;28;20019;-82
2022/10/15 09:47:45;;;;;;;;;;;;;;;20.11;43.56;101346.00;5049952;28;19943;-82
2022/10/15 09:50:15;;;;;;;;;;;;;;;19.98;43.97;101347.66;5033611;28;19920;-82
2022/10/15 09:52:53;;;;;;;;;;;;;;;19.94;43.08;101345.56;5035674;28;20288;-83
2022/10/15 09:55:19;;;;;;;;;;;;;;;20.12;43.19;101358.63;5058862;28;20332;-83
2022/10/15 09:57:47;;;;;;;;;;;;;;;20.14;43.32;101351.91;5032385;28;19920;-82
2022/10/15 10:00:13;;;;;;;;;;;;;;;20.19;43.40;101348.56;5016709;28;19928;-82
2022/10/15 10:02:38;;;;;;;;;;;;;;;19.93;44.13;101355.63;5054147;28;20039;-82
2022/10/15 10:05:17;;;;;;;;;;;;;;;19.61;44.62;101347.09;5053665;28;20003;-82
2022/10/15 10:07:43;;;;;;;;;;;;;;;19.79;43.88;101348.47;5053278;28;19967;-82
2022/10/15 10:10:20;;;;;;;;;;;;;;;19.65;44.21;101354.88;5042595;28;20383;-82
2022/10/15 10:12:46;;;;;;;;;;;;;;;19.47;44.36;101352.72;5052354;28;19929;-82
2022/10/15 10:15:20;;;;;;;;;;;;;;;19.48;44.66;101346.19;5035332;28;19927;-82
2022/10/15 10:17:51;;;;;;;;;;;;;;;19.39;44.95;101357.28;5053540;28;20050;-82
2022/10/15 10:20:17;;;;;;;;;;;;;;;19.03;46.02;101357.50;5051581;28;19932;-81
2022/10/15 10:22:45;;;;;;;;;;;;;;;19.07;45.95;101369.69;5050018;28;19980;-82
2022/10/15 10:25:26;;;;;;;;;;;;;;;19.00;46.52;101360.63;5052837;28;19921;-82
2022/10/15 10:27:55;;;;;;;;;;;;;;;18.91;46.16;101346.31;5054745;28;20345;-80
2022/10/15 10:30:21;;;;;;;;;;;;;;;19.01;46.78;101372.34;5055277;28;19928;-87
2022/10/15 10:32:46;;;;;;;;;;;;;;;18.88;47.04;101351.31;5052094;28;19946;-82
2022/10/15 10:35:18;;;;;;;;;;;;;;;18.94;47.02;101356.81;5042196;28;19959;-82
2022/10/15 10:37:43;;;;;;;;;;;;;;;18.39;47.46;101360.31;5048619;28;19920;-82
2022/10/15 10:40:35;;;;;;;;;;;;;;;18.42;47.69;101358.03;5053856;28;19917;-82
2022/10/15 10:43:15;;;;;;;;;;;;;;;18.29;47.93;101361.50;5056892;28;19988;-81
2022/10/15 10:45:59;;;;;;;;;;;;;;;18.53;47.59;101359.41;5064163;28;20381;-81
2022/10/15 10:48:47;;;;;;;;;;;;;;;18.60;46.91;101359.47;5058406;28;19928;-80
2022/10/15 10:51:14;;;;;;;;;;;;;;;18.44;47.03;101363.28;5055823;28;20304;-82
2022/10/15 10:53:58;;;;;;;;;;;;;;;18.74;46.35;101353.91;5060153;28;19925;-83
2022/10/15 10:56:43;;;;;;;;;;;;;;;18.75;45.65;101363.78;5042317;28;19924;-82
2022/10/15 10:59:08;;;;;;;;;;;;;;;18.58;45.75;101356.09;5065406;28;19991;-81
2022/10/15 11:01:34;;;;;;;;;;;;;;;18.46;45.67;101353.91;5069031;28;20371;-81
2022/10/15 11:03:59;;;;;;;;;;;;;;;18.47;45.57;101352.00;5049391;28;20402;-80
2022/10/15 11:06:49;;;;;;;;;;;;;;;18.30;45.65;101351.44;5060606;28;20397;-80
2022/10/15 11:09:21;;;;;;;;;;;;;;;18.26;46.07;101351.00;5055456;28;20086;-84
2022/10/15 11:11:50;;;;;;;;;;;;;;;18.45;45.20;101349.50;5079440;28;19924;-81
2022/10/15 11:14:21;;;;;;;;;;;;;;;18.34;45.51;101350.84;5077507;28;19920;-83
2022/10/15 11:16:46;;;;;;;;;;;;;;;18.48;44.99;101351.81;5071303;28;20700;-82
2022/10/15 11:19:23;;;;;;;;;;;;;;;18.57;44.56;101347.09;5066623;28;19968;-82
2022/10/15 11:21:54;;;;;;;;;;;;;;;18.66;44.95;101348.63;5047520;28;19934;-80
2022/10/15 11:24:25;;;;;;;;;;;;;;;18.91;43.91;101351.75;5065326;28;20347;-82
2022/10/15 11:26:59;;;;;;;;;;;;;;;19.00;44.05;101349.72;5037771;28;19925;-82
2022/10/15 11:29:31;;;;;;;;;;;;;;;18.71;43.54;101345.31;5040233;28;19921;-81
2022/10/15 11:31:56;;;;;;;;;;;;;;;18.55;43.57;101341.00;5062976;28;19917;-82
2022/10/15 11:34:27;;;;;;;;;;;;;;;18.70;43.58;101343.63;5058495;28;20322;-83
2022/10/15 11:37:25;;;;;;;;;;;;;;;18.70;43.56;101339.00;5055053;28;19962;-82
2022/10/15 11:39:53;;;;;;;;;;;;;;;18.90;42.82;101335.63;5014141;28;20465;-80
2022/10/15 11:42:23;;;;;;;;;;;;;;;18.65;43.00;101341.47;5061291;28;19925;-80
2022/10/15 11:44:55;;;;;;;;;;;;;;;18.54;43.67;101359.22;5046478;28;20392;-81
2022/10/15 11:47:44;;;;;;;;;;;;;;;18.59;43.30;101336.84;5072768;28;19982;-81
2022/10/15 11:50:19;;;;;;;;;;;;;;;18.58;43.00;101345.19;5061063;28;19925;-80
2022/10/15 11:52:56;;;;;;;;;;;;;;;18.61;42.88;101342.06;5034635;28;20508;-79
2022/10/15 11:55:24;;;;;;;;;;;;;;;18.60;43.14;101343.97;5060573;28;19916;-83
2022/10/15 11:57:50;;;;;;;;;;;;;;;18.81;43.16;101339.53;5032993;28;19929;-81
2022/10/15 12:00:19;;;;;;;;;;;;;;;18.85;42.71;101347.13;5045180;28;19917;-81
2022/10/15 12:02:45;;;;;;;;;;;;;;;19.03;42.69;101348.47;5062893;28;20312;-81
2022/10/15 12:05:18;;;;;;;;;;;;;;;19.02;42.24;101342.19;5053033;28;19935;-79
2022/10/15 12:07:44;;;;;;;;;;;;;;;19.00;42.37;101343.44;5048902;28;19921;-81
2022/10/15 12:10:12;;;;;;;;;;;;;;;18.79;42.74;101341.63;5063789;28;20021;-81
2022/10/15 12:12:40;;;;;;;;;;;;;;;18.79;42.89;101336.19;5062415;28;19974;-80
2022/10/15 12:15:12;;;;;;;;;;;;;;;18.76;43.00;101332.81;5062852;28;19932;-81
2022/10/15 12:17:47;;;;;;;;;;;;;;;18.74;43.31;101334.84;5055662;28;20362;-80
2022/10/15 12:20:17;;;;;;;;;;;;;;;18.53;43.72;101349.34;5061600;28;19925;-79
2022/10/15 12:22:45;;;;;;;;;;;;;;;18.29;43.65;101341.59;5046889;28;19917;-79
2022/10/15 12:25:49;;;;;;;;;;;;;;;18.26;44.33;101342.84;5063556;28;19952;-80
2022/10/15 12:28:24;;;;;;;;;;;;;;;18.17;44.22;101349.44;4967210;28;20346;-80
2022/10/15 12:30:56;;;;;;;;;;;;;;;18.20;44.33;101349.06;4966714;28;19922;-80
2022/10/15 12:33:23;;;;;;;;;;;;;;;18.34;44.21;101352.75;5014472;28;19921;-80
2022/10/15 12:35:52;;;;;;;;;;;;;;;18.11;44.11;101355.66;5064636;28;19974;-79
2022/10/15 12:38:23;;;;;;;;;;;;;;;18.11;44.28;101350.22;5041458;28;19921;-81
2022/10/15 12:40:54;;;;;;;;;;;;;;;17.93;45.08;101354.22;5035256;28;19925;-78